Time;durP1;ratioP1;P1;durP2;ratioP2;P2;SDS_P1;SDS_P2;PMS_P1;PMS_P2;Temp;Humidity;BMP_temperature;BMP_pressure;BME280_temperature;BME280_humidity;BME280_pressure;Samples;Min_cycle;Max_cycle;Signal;HPM_P1;HPM_P2
2022/07/12 00:01:30;;;;;;;5.97;3.53;;;;;;;15.82;90.12;102344.03;5020211;28;20504;-79
2022/07/12 00:03:55;;;;;;;4.78;3.05;;;;;;;15.74;89.79;102339.28;5023166;28;20026;-79
2022/07/12 00:06:21;;;;;;;6.03;2.95;;;;;;;15.70;90.08;102339.63;5021026;28;20022;-78
2022/07/12 00:08:46;;;;;;;4.25;3.20;;;;;;;15.62;90.04;102333.06;5021801;28;20119;-78
2022/07/12 00:11:12;;;;;;;2.90;2.70;;;;;;;15.57;89.93;102324.50;5018936;28;20508;-78
2022/07/12 00:13:42;;;;;;;3.95;2.95;;;;;;;15.57;90.64;102323.66;5019747;28;20029;-79
2022/07/12 00:16:07;;;;;;;4.63;3.08;;;;;;;15.50;90.66;102311.81;5019837;28;20409;-75
2022/07/12 00:18:33;;;;;;;6.97;3.30;;;;;;;15.50;90.41;102317.97;5019638;28;20029;-75
2022/07/12 00:20:58;;;;;;;4.15;3.13;;;;;;;15.44;90.51;102318.41;5027695;28;20022;-75
2022/07/12 00:23:24;;;;;;;6.13;3.40;;;;;;;15.46;90.19;102311.19;5025175;28;20033;-76
2022/07/12 00:25:49;;;;;;;4.65;3.28;;;;;;;15.44;90.03;102313.09;5032421;28;20029;-78
2022/07/12 00:28:17;;;;;;;9.38;3.60;;;;;;;15.39;90.42;102320.53;5021836;28;20034;-78
2022/07/12 00:30:43;;;;;;;4.95;3.83;;;;;;;15.39;90.84;102320.53;5021703;28;20032;-78
2022/07/12 00:33:08;;;;;;;5.22;4.10;;;;;;;15.38;91.46;102329.44;5026316;28;20022;-76
2022/07/12 00:35:34;;;;;;;3.63;3.10;;;;;;;15.32;91.58;102319.28;5027513;28;20508;-79
2022/07/12 00:37:59;;;;;;;6.78;2.92;;;;;;;15.30;91.25;102326.50;5030711;28;20030;-76
2022/07/12 00:40:24;;;;;;;4.45;2.92;;;;;;;15.24;90.96;102324.28;5029378;28;20049;-77
2022/07/12 00:42:50;;;;;;;5.72;2.50;;;;;;;15.30;90.98;102331.78;5026965;28;20029;-79
2022/07/12 00:45:18;;;;;;;3.75;2.97;;;;;;;15.21;91.13;102321.81;5029836;28;20027;-78
2022/07/12 00:47:46;;;;;;;4.78;2.70;;;;;;;15.15;91.18;102323.09;5033527;28;20026;-78
2022/07/12 00:50:14;;;;;;;3.67;2.90;;;;;;;15.21;90.71;102321.81;5024545;28;20053;-78
2022/07/12 00:52:41;;;;;;;3.10;2.80;;;;;;;15.22;90.73;102324.38;5023228;28;20116;-76
2022/07/12 00:55:08;;;;;;;3.58;3.10;;;;;;;15.16;90.86;102318.63;5025488;28;20241;-79
2022/07/12 00:57:34;;;;;;;3.55;3.13;;;;;;;15.05;91.47;102316.72;5028425;28;20057;-79
2022/07/12 00:59:59;;;;;;;5.88;3.00;;;;;;;15.01;91.57;102316.09;5025474;28;20025;-78
2022/07/12 01:02:25;;;;;;;3.85;3.42;;;;;;;15.00;91.81;102314.41;5019246;28;20056;-79
2022/07/12 01:04:51;;;;;;;5.13;3.33;;;;;;;14.97;91.66;102317.28;5034295;28;20029;-78
2022/07/12 01:07:20;;;;;;;5.72;3.35;;;;;;;14.96;91.85;102318.22;5019583;28;20025;-79
2022/07/12 01:09:46;;;;;;;3.72;3.08;;;;;;;15.00;91.14;102314.41;5030557;28;20525;-78
2022/07/12 01:12:12;;;;;;;3.75;3.15;;;;;;;14.93;91.59;102317.59;5033379;28;20078;-79
2022/07/12 01:14:40;;;;;;;4.22;3.05;;;;;;;14.91;91.11;102324.81;5025313;28;20477;-79
2022/07/12 01:17:06;;;;;;;4.32;3.00;;;;;;;14.88;91.23;102325.00;5039323;28;20065;-78
2022/07/12 01:19:43;;;;;;;3.58;3.10;;;;;;;14.81;91.17;102326.34;5023713;28;20104;-78
2022/07/12 01:22:10;;;;;;;3.50;2.95;;;;;;;14.86;91.12;102321.63;5024495;28;20024;-76
2022/07/12 01:24:36;;;;;;;3.83;3.13;;;;;;;14.78;91.55;102324.78;5022568;28;20286;-77
2022/07/12 01:27:05;;;;;;;5.40;2.70;;;;;;;14.74;91.88;102339.19;5025883;28;20101;-77
2022/07/12 01:29:31;;;;;;;6.15;3.50;;;;;;;14.76;91.89;102329.31;5022376;28;20036;-79
2022/07/12 01:32:24;;;;;;;4.82;3.00;;;;;;;14.66;91.75;102326.47;5025460;28;20108;-79
2022/07/12 01:34:43;;;;;;;5.40;3.47;;;;;;;14.60;92.85;102334.81;5033505;28;20042;-79
2022/07/12 01:37:09;;;;;;;6.78;3.08;;;;;;;14.58;93.30;102336.72;5046647;28;20030;-79
2022/07/12 01:39:36;;;;;;;4.32;3.25;;;;;;;14.57;93.26;102329.72;5035427;28;20112;-79
2022/07/12 01:42:02;;;;;;;4.28;2.90;;;;;;;14.50;92.97;102331.09;5031314;28;20030;-76
2022/07/12 01:44:27;;;;;;;5.25;2.90;;;;;;;14.47;92.41;102328.66;5028417;28;20508;-78
2022/07/12 01:46:53;;;;;;;7.38;3.25;;;;;;;14.45;92.79;102329.72;5023046;28;20084;-78
2022/07/12 01:49:18;;;;;;;3.97;2.97;;;;;;;14.35;93.04;102332.06;5032331;28;20028;-78
2022/07/12 01:51:44;;;;;;;5.25;2.70;;;;;;;14.33;92.99;102334.81;5037631;28;20385;-76
2022/07/12 01:54:11;;;;;;;3.85;2.78;;;;;;;14.32;92.43;102319.03;5021353;28;20112;-79
2022/07/12 01:56:36;;;;;;;2.95;2.65;;;;;;;14.27;93.09;102324.63;5033578;28;20095;-79
2022/07/12 01:59:02;;;;;;;4.18;2.97;;;;;;;14.24;92.96;102330.13;5019096;28;20061;-79
2022/07/12 02:01:29;;;;;;;4.18;3.03;;;;;;;14.21;93.00;102324.19;5020194;28;20056;-79
2022/07/12 02:03:54;;;;;;;7.25;3.13;;;;;;;14.21;92.81;102329.47;5036708;28;20413;-76
2022/07/12 02:06:20;;;;;;;6.13;3.30;;;;;;;14.18;92.76;102325.25;5020751;28;20025;-79
2022/07/12 02:08:46;;;;;;;4.32;3.13;;;;;;;14.15;92.95;102319.31;5019295;28;20030;-77
2022/07/12 02:11:11;;;;;;;3.38;2.90;;;;;;;14.15;92.70;102324.59;5022673;28;20035;-79
2022/07/12 02:13:37;;;;;;;4.65;3.20;;;;;;;14.11;92.71;102327.44;5020589;28;20504;-77
2022/07/12 02:16:04;;;;;;;5.07;3.33;;;;;;;14.10;92.45;102325.75;5021411;28;20083;-78
2022/07/12 02:18:32;;;;;;;4.93;3.08;;;;;;;14.07;92.96;102323.31;5022688;28;20120;-79
2022/07/12 02:20:58;;;;;;;4.55;3.15;;;;;;;14.05;93.05;102319.06;5020478;28;20532;-79
2022/07/12 02:23:23;;;;;;;5.80;3.25;;;;;;;14.10;92.84;102316.97;5020644;28;20037;-76
2022/07/12 02:25:48;;;;;;;4.07;3.08;;;;;;;14.08;92.89;102313.56;5019103;28;20025;-79
2022/07/12 02:28:14;;;;;;;3.72;3.10;;;;;;;14.05;93.32;102308.47;5029408;28;20492;-79
2022/07/12 02:30:39;;;;;;;3.88;2.80;;;;;;;14.02;92.94;102319.25;5025042;28;20030;-77
2022/07/12 02:33:04;;;;;;;5.25;2.92;;;;;;;14.04;92.82;102317.38;5018914;28;20029;-77
2022/07/12 02:35:30;;;;;;;8.00;3.05;;;;;;;13.99;92.63;102324.72;5017480;28;20026;-79
2022/07/12 02:37:55;;;;;;;3.22;2.90;;;;;;;13.95;92.77;102318.78;5022166;28;20110;-77
2022/07/12 02:43:05;;;;;;;3.80;2.60;;;;;;;13.91;92.97;102319.94;5025266;28;20052;-77
2022/07/12 02:45:30;;;;;;;2.88;2.40;;;;;;;13.96;92.51;102323.13;5027783;28;20405;-79
2022/07/12 02:47:55;;;;;;;3.50;2.40;;;;;;;13.92;92.54;102323.44;5032726;28;20678;-79
2022/07/12 02:50:21;;;;;;;4.75;2.53;;;;;;;13.82;92.99;102320.53;5025936;28;20049;-80
2022/07/12 02:52:46;;;;;;;3.58;2.40;;;;;;;13.77;92.76;102326.13;5028416;28;20021;-79
2022/07/12 02:55:11;;;;;;;3.50;2.47;;;;;;;13.84;92.55;102320.44;5027857;28;20084;-80
2022/07/12 02:57:37;;;;;;;3.17;2.30;;;;;;;13.72;92.96;102317.63;5026314;28;20029;-80
2022/07/12 03:00:03;;;;;;;4.32;2.58;;;;;;;13.79;92.68;102318.94;5027286;28;20026;-79
2022/07/12 03:02:29;;;;;;;3.40;2.50;;;;;;;13.67;92.72;102324.16;5027843;28;20457;-80
2022/07/12 03:04:58;;;;;;;2.72;2.22;;;;;;;13.63;92.58;102323.50;5024351;28;20042;-80
2022/07/12 03:07:23;;;;;;;3.72;2.72;;;;;;;13.59;93.33;102316.69;5021451;28;20045;-78
2022/07/12 03:09:49;;;;;;;2.45;2.25;;;;;;;13.58;93.13;102315.00;5019974;28;20416;-76
2022/07/12 03:12:18;;;;;;;2.47;2.25;;;;;;;13.55;93.21;102317.81;5026602;28;20116;-76
2022/07/12 03:14:43;;;;;;;4.95;2.60;;;;;;;13.55;93.14;102315.19;5024458;28;20036;-76
2022/07/12 03:17:09;;;;;;;4.32;2.92;;;;;;;13.58;92.82;102315.00;5020397;28;20022;-79
2022/07/12 03:19:35;;;;;;;2.90;2.45;;;;;;;13.55;92.73;102315.19;5020974;28;20797;-79
2022/07/12 03:22:00;;;;;;;3.40;2.38;;;;;;;13.55;92.43;102314.34;5021614;28;20033;-77
2022/07/12 03:24:26;;;;;;;3.95;2.60;;;;;;;13.49;93.00;102318.22;5016917;28;20075;-79
2022/07/12 03:26:53;;;;;;;4.90;2.90;;;;;;;13.52;92.98;102318.03;5019484;28;20033;-78
2022/07/12 03:29:20;;;;;;;5.10;2.83;;;;;;;13.43;93.07;102318.59;5024871;28;20481;-78
2022/07/12 03:31:49;;;;;;;4.22;2.92;;;;;;;13.44;93.41;102318.50;5019424;28;20032;-80
2022/07/12 03:34:14;;;;;;;6.55;3.20;;;;;;;13.38;93.96;102320.69;5019550;28;20473;-79
2022/07/12 03:36:40;;;;;;;4.20;2.85;;;;;;;13.45;93.42;102319.34;5021399;28;20041;-79
2022/07/12 03:39:08;;;;;;;6.43;3.60;;;;;;;13.43;94.01;102318.59;5024308;28;20060;-77
2022/07/12 03:41:34;;;;;;;3.70;3.40;;;;;;;13.43;94.08;102327.38;5020041;28;20022;-77
2022/07/12 03:43:59;;;;;;;5.50;3.80;;;;;;;13.47;94.33;102333.34;5029192;28;20025;-80
2022/07/12 03:46:25;;;;;;;4.55;3.63;;;;;;;13.43;94.42;102327.38;5017753;28;20029;-76
2022/07/12 03:48:51;;;;;;;3.97;3.10;;;;;;;13.41;94.35;102325.78;5018236;28;20577;-79
2022/07/12 03:51:19;;;;;;;5.43;3.30;;;;;;;13.44;94.23;102328.22;5026164;28;20174;-79
2022/07/12 03:53:46;;;;;;;5.88;3.60;;;;;;;13.40;93.79;102332.88;5028027;28;20026;-79
2022/07/12 03:57:13;;;;;;;5.75;3.72;;;;;;;13.38;94.53;102328.63;5031964;28;20377;-77
2022/07/12 03:58:58;;;;;;;4.30;3.70;;;;;;;13.40;94.18;102324.94;5026443;28;20091;-78
2022/07/12 04:01:23;;;;;;;4.55;3.70;;;;;;;13.42;94.46;102330.13;5028940;28;20029;-77
2022/07/12 04:03:49;;;;;;;4.57;3.40;;;;;;;13.40;94.44;102326.72;5028922;28;20029;-77
2022/07/12 04:06:19;;;;;;;4.78;3.00;;;;;;;13.43;93.90;102321.25;5016797;28;20030;-79
2022/07/12 04:08:44;;;;;;;4.25;3.30;;;;;;;13.43;94.21;102315.97;5023363;28;20037;-77
2022/07/12 04:11:10;;;;;;;4.70;3.28;;;;;;;13.59;94.27;102315.84;5029981;28;20025;-78
2022/07/12 04:13:36;;;;;;;5.60;3.28;;;;;;;14.37;91.32;102315.13;5031345;28;20026;-77
2022/07/12 04:16:02;;;;;;;3.80;3.35;;;;;;;15.47;85.68;102317.34;5024745;28;20034;-80
2022/07/12 04:18:28;;;;;;;4.93;2.70;;;;;;;16.32;81.01;102311.09;5026321;28;20397;-80
2022/07/12 04:20:53;;;;;;;4.13;2.50;;;;;;;16.78;78.81;102323.59;5027472;28;20021;-80
2022/07/12 04:23:19;;;;;;;2.83;2.60;;;;;;;16.91;77.65;102319.03;5026758;28;20104;-80
2022/07/12 04:25:45;;;;;;;5.18;2.17;;;;;;;17.12;76.23;102321.84;5026842;28;20029;-80
2022/07/12 04:28:10;;;;;;;3.35;2.20;;;;;;;16.89;76.17;102328.94;5029967;28;20036;-78
2022/07/12 04:30:38;;;;;;;3.35;2.38;;;;;;;16.35;78.15;102318.00;5020768;28;20036;-79
2022/07/12 04:33:03;;;;;;;2.65;2.38;;;;;;;16.19;79.14;102319.16;5021764;28;20030;-80
2022/07/12 04:35:28;;;;;;;4.60;2.50;;;;;;;16.01;80.15;102330.25;5021546;28;20073;-80
2022/07/12 04:37:54;;;;;;;3.67;2.33;;;;;;;15.67;81.54;102338.03;5039592;28;20049;-78
2022/07/12 04:40:24;;;;;;;2.95;2.30;;;;;;;15.68;82.64;102341.53;5022717;28;20093;-80
2022/07/12 04:42:49;;;;;;;4.65;2.45;;;;;;;15.35;83.48;102341.13;5021016;28;20088;-78
2022/07/12 04:45:18;;;;;;;4.18;2.70;;;;;;;15.17;84.92;102342.38;5021187;28;20116;-78
2022/07/12 04:47:43;;;;;;;3.90;2.80;;;;;;;15.18;85.57;102336.13;5015047;28;20026;-80
2022/07/12 04:50:13;;;;;;;5.47;3.15;;;;;;;15.04;86.43;102339.75;5024196;28;20401;-81
2022/07/12 04:52:38;;;;;;;5.70;3.10;;;;;;;14.92;87.36;102337.94;5028845;28;20474;-80
2022/07/12 04:55:05;;;;;;;4.20;3.03;;;;;;;14.76;88.32;102345.22;5024789;28;20033;-78
2022/07/12 04:57:30;;;;;;;3.67;3.22;;;;;;;14.70;89.20;102345.63;5029208;28;20060;-80
2022/07/12 04:59:56;;;;;;;5.05;3.67;;;;;;;14.63;90.18;102339.06;5045823;28;20061;-78
2022/07/12 05:02:25;;;;;;;3.70;3.30;;;;;;;14.61;90.60;102335.66;5029354;28;20025;-78
2022/07/12 05:04:51;;;;;;;6.32;4.10;;;;;;;14.57;91.83;102336.84;5019872;28;20048;-80
2022/07/12 05:07:20;;;;;;;4.45;4.03;;;;;;;14.56;92.88;102335.97;5029210;28;20033;-80
2022/07/12 05:09:46;;;;;;;7.00;4.45;;;;;;;14.58;93.27;102334.06;5022298;28;20026;-80
2022/07/12 05:12:11;;;;;;;5.43;4.90;;;;;;;14.64;94.17;102343.41;5024801;28;20362;-79
2022/07/12 05:14:38;;;;;;;6.13;5.03;;;;;;;14.64;94.51;102349.56;5028326;28;20441;-79
2022/07/12 05:17:08;;;;;;;7.53;5.93;;;;;;;14.66;95.38;102352.09;5025073;28;20033;-78
2022/07/12 05:19:33;;;;;;;6.72;6.13;;;;;;;14.71;96.16;102349.97;5026141;28;20076;-78
2022/07/12 05:21:59;;;;;;;7.15;6.45;;;;;;;14.79;95.88;102355.63;5024249;28;20017;-79
2022/07/12 05:24:25;;;;;;;8.43;7.40;;;;;;;14.85;96.67;102357.03;5023791;28;20029;-79
2022/07/12 05:26:50;;;;;;;8.88;8.00;;;;;;;14.92;97.03;102367.09;5027618;28;20039;-76
2022/07/12 05:29:19;;;;;;;11.98;9.45;;;;;;;14.97;97.67;102367.63;5019504;28;20033;-77
2022/07/12 05:31:44;;;;;;;11.45;10.40;;;;;;;15.02;97.58;102364.66;5019509;28;20037;-77
2022/07/12 05:34:09;;;;;;;12.98;11.65;;;;;;;15.10;98.10;102377.38;5023215;28;20021;-79
2022/07/12 05:36:34;;;;;;;14.32;12.68;;;;;;;15.14;98.43;102379.72;5024015;28;20098;-77
2022/07/12 05:39:00;;;;;;;13.45;12.18;;;;;;;15.27;98.28;102385.06;5020178;28;20041;-77
2022/07/12 05:41:30;;;;;;;14.15;12.88;;;;;;;15.29;97.97;102394.59;5034834;28;20029;-79
2022/07/12 05:43:55;;;;;;;17.05;13.38;;;;;;;15.40;97.95;102398.31;5019942;28;20029;-80
2022/07/12 05:46:21;;;;;;;15.85;14.25;;;;;;;15.51;97.93;102398.38;5022269;28;20087;-78
2022/07/12 05:48:46;;;;;;;14.15;12.95;;;;;;;15.64;97.58;102399.28;5027389;28;20029;-79
2022/07/12 05:53:55;;;;;;;15.05;13.75;;;;;;;15.86;97.76;102409.22;5026613;28;20040;-80
2022/07/12 05:56:21;;;;;;;15.48;13.90;;;;;;;16.01;97.66;102405.47;5027514;28;20026;-78
2022/07/12 05:58:46;;;;;;;17.00;15.40;;;;;;;16.12;97.59;102416.16;5028077;28;20033;-80
2022/07/12 06:01:11;;;;;;;16.33;14.82;;;;;;;16.20;97.33;102408.47;5027518;28;20028;-79
2022/07/12 06:03:37;;;;;;;15.63;14.23;;;;;;;16.29;96.70;102407.81;5026747;28;20049;-79
2022/07/12 06:06:03;;;;;;;19.67;15.93;;;;;;;16.41;96.08;102400.75;5030726;28;20021;-79
2022/07/12 06:08:32;;;;;;;17.13;15.43;;;;;;;16.42;96.52;102412.25;5028374;28;20615;-80
2022/07/12 06:10:59;;;;;;;17.67;15.98;;;;;;;16.60;95.99;102410.88;5028558;28;20025;-78
2022/07/12 06:13:24;;;;;;;17.60;15.73;;;;;;;16.68;94.45;102407.66;5027475;28;20027;-78
2022/07/12 06:15:50;;;;;;;17.20;15.60;;;;;;;16.73;95.34;102411.66;5025870;28;20030;-79
2022/07/12 06:18:19;;;;;;;18.00;15.73;;;;;;;16.82;93.88;102415.47;5024965;28;20026;-79
2022/07/12 06:20:46;;;;;;;17.58;15.88;;;;;;;16.98;94.30;102404.50;5028957;28;20022;-78
2022/07/12 06:23:12;;;;;;;16.55;14.95;;;;;;;17.15;93.83;102412.03;5027460;28;20478;-79
2022/07/12 06:25:38;;;;;;;17.40;15.65;;;;;;;17.21;92.82;102412.44;5016458;28;20394;-78
2022/07/12 06:28:04;;;;;;;17.77;15.85;;;;;;;17.42;93.33;102409.91;5024081;28;20030;-76
2022/07/12 06:30:30;;;;;;;15.73;14.27;;;;;;;17.65;91.10;102407.28;5016989;28;20028;-80
2022/07/12 06:32:55;;;;;;;15.50;13.88;;;;;;;17.81;90.26;102408.63;5013718;28;20489;-79
2022/07/12 06:35:21;;;;;;;14.38;12.98;;;;;;;17.92;88.50;102413.06;5019942;28;20057;-80
2022/07/12 06:37:46;;;;;;;13.95;12.70;;;;;;;18.04;86.75;102412.09;5032817;28;20044;-80
2022/07/12 06:40:12;;;;;;;14.40;11.68;;;;;;;18.17;86.27;102410.13;5018907;28;20584;-81
2022/07/12 06:42:37;;;;;;;13.52;12.27;;;;;;;18.32;85.79;102407.19;5020891;28;20029;-81
2022/07/12 06:45:03;;;;;;;13.63;11.32;;;;;;;18.46;85.01;102412.25;5021395;28;20021;-80
2022/07/12 06:47:30;;;;;;;13.55;12.20;;;;;;;18.51;83.93;102404.72;5028287;28;20489;-80
2022/07/12 06:49:56;;;;;;;13.10;11.90;;;;;;;18.54;83.97;102407.13;5020567;28;20613;-80
2022/07/12 06:52:21;;;;;;;13.20;11.80;;;;;;;18.69;83.77;102415.69;5021294;28;20033;-80
2022/07/12 06:54:47;;;;;;;13.00;11.68;;;;;;;18.74;83.24;102422.31;5017864;28;20457;-80
2022/07/12 06:57:14;;;;;;;12.88;11.50;;;;;;;18.89;82.57;102419.38;5019943;28;20033;-79
2022/07/12 06:59:39;;;;;;;12.77;11.40;;;;;;;18.99;81.67;102406.94;5018173;28;20363;-80
2022/07/12 07:02:05;;;;;;;13.38;10.60;;;;;;;19.14;79.82;102413.63;5021327;28;20021;-78
2022/07/12 07:04:30;;;;;;;11.80;10.73;;;;;;;19.26;79.84;102411.75;5022120;28;20496;-78
2022/07/12 07:06:56;;;;;;;11.20;10.05;;;;;;;19.47;78.95;102414.38;5027656;28;20053;-79
2022/07/12 07:09:22;;;;;;;11.98;10.38;;;;;;;19.64;77.49;102403.97;5028803;28;20025;-79
2022/07/12 07:11:48;;;;;;;11.07;10.15;;;;;;;19.83;77.01;102411.19;5029847;28;20068;-77
2022/07/12 07:14:13;;;;;;;11.00;9.88;;;;;;;20.06;76.39;102411.00;5026688;28;20413;-76
2022/07/12 07:16:38;;;;;;;9.65;8.65;;;;;;;20.33;74.88;102413.84;5027075;28;20029;-79
2022/07/12 07:19:05;;;;;;;10.88;9.77;;;;;;;20.56;74.52;102404.63;5024893;28;20030;-76
2022/07/12 07:21:30;;;;;;;12.88;8.73;;;;;;;20.80;71.96;102406.84;5026656;28;20029;-79
2022/07/12 07:24:00;;;;;;;8.40;7.55;;;;;;;21.08;71.44;102404.28;5026034;28;20050;-76
2022/07/12 07:26:26;;;;;;;10.48;9.38;;;;;;;21.30;71.03;102408.50;5025811;28;20036;-80
2022/07/12 07:31:37;;;;;;;10.13;7.28;;;;;;;22.13;68.63;102403.06;5026885;28;20044;-78
2022/07/12 07:34:03;;;;;;;9.75;6.60;;;;;;;22.23;66.47;102408.38;5026465;28;20469;-75
2022/07/12 07:36:28;;;;;;;5.55;5.00;;;;;;;22.55;65.55;102407.00;5026313;28;20025;-76
2022/07/12 07:38:54;;;;;;;7.40;6.57;;;;;;;22.65;64.06;102403.25;5026135;28;20029;-79
2022/07/12 07:41:20;;;;;;;5.70;5.07;;;;;;;22.65;64.02;102392.50;5033152;28;20026;-79
2022/07/12 07:43:45;;;;;;;8.00;4.95;;;;;;;22.88;63.39;102403.63;5020623;28;20025;-79
2022/07/12 07:46:11;;;;;;;4.97;3.70;;;;;;;22.82;63.35;102388.16;5024159;28;20028;-80
2022/07/12 07:48:36;;;;;;;5.95;3.70;;;;;;;22.74;62.81;102394.25;5018366;28;20033;-80
2022/07/12 07:51:01;;;;;;;4.20;3.60;;;;;;;22.86;62.00;102389.53;5017328;28;20486;-79
2022/07/12 07:53:28;;;;;;;7.15;3.63;;;;;;;22.77;63.05;102391.25;5032193;28;20129;-79
2022/07/12 07:55:53;;;;;;;4.35;3.95;;;;;;;22.83;61.58;102395.22;5019338;28;20040;-78
2022/07/12 07:58:20;;;;;;;4.97;3.38;;;;;;;22.99;59.74;102383.75;5019795;28;20032;-78
2022/07/12 08:00:46;;;;;;;3.63;3.40;;;;;;;23.06;60.56;102391.00;5024302;28;20026;-78
2022/07/12 08:03:11;;;;;;;5.93;4.13;;;;;;;23.14;59.66;102388.38;5016967;28;20036;-78
2022/07/12 08:05:37;;;;;;;5.13;4.10;;;;;;;23.17;59.22;102397.09;5016866;28;20034;-77
2022/07/12 08:08:02;;;;;;;6.82;4.03;;;;;;;23.03;58.94;102395.84;5019291;28;20718;-76
2022/07/12 08:10:28;;;;;;;4.75;3.60;;;;;;;23.20;60.57;102394.09;5019952;28;20489;-79
2022/07/12 08:12:53;;;;;;;4.10;3.80;;;;;;;23.16;58.58;102398.09;5026699;28;20079;-78
2022/07/12 08:15:19;;;;;;;5.13;3.85;;;;;;;23.19;59.63;102395.09;5025214;28;20500;-79
2022/07/12 08:17:44;;;;;;;6.20;3.90;;;;;;;23.14;60.10;102393.75;5024608;28;20036;-79
2022/07/12 08:20:10;;;;;;;4.70;4.30;;;;;;;23.01;60.47;102387.13;5025880;28;20026;-77
2022/07/12 08:22:43;;;;;;;5.97;5.00;;;;;;;22.99;60.30;102389.94;5021037;28;20056;-79
2022/07/12 08:25:08;;;;;;;6.57;5.00;;;;;;;23.10;59.51;102392.38;5024282;28;20485;-77
2022/07/12 08:27:34;;;;;;;6.85;4.53;;;;;;;23.39;58.58;102394.75;5036033;28;20072;-80
2022/07/12 08:29:59;;;;;;;5.07;4.50;;;;;;;23.29;59.21;102401.22;5017230;28;20026;-83
2022/07/12 08:32:24;;;;;;;5.40;4.32;;;;;;;23.51;58.69;102402.50;5019773;28;20722;-79
2022/07/12 08:34:50;;;;;;;8.65;4.60;;;;;;;23.54;58.42;102399.50;5018893;28;20030;-82
2022/07/12 08:37:18;;;;;;;5.50;4.07;;;;;;;23.72;58.62;102406.53;5025700;28;20025;-78
2022/07/12 08:39:43;;;;;;;4.18;3.75;;;;;;;23.89;57.17;102404.72;5016236;28;20030;-75
2022/07/12 08:42:21;;;;;;;5.25;4.75;;;;;;;23.91;56.16;102408.09;5020774;28;20060;-79
2022/07/12 08:44:56;;;;;;;5.47;4.97;;;;;;;23.84;57.74;102408.91;5014026;28;20030;-79
2022/07/12 08:47:22;;;;;;;8.02;4.70;;;;;;;23.78;57.22;102413.09;5027463;28;20124;-75
2022/07/12 08:50:13;;;;;;;5.68;4.60;;;;;;;23.74;58.90;102415.28;5028423;28;20108;-80
2022/07/12 08:52:44;;;;;;;6.43;4.60;;;;;;;23.58;56.84;102417.84;5028342;28;20057;-78
2022/07/12 08:55:25;;;;;;;5.68;4.05;;;;;;;23.69;57.08;102422.97;5031483;28;20032;-78
2022/07/12 08:57:52;;;;;;;5.38;3.80;;;;;;;23.77;56.33;102415.94;5029549;28;20026;-78
2022/07/12 09:00:19;;;;;;;5.53;3.92;;;;;;;23.96;57.44;102421.06;5029892;28;20522;-78
2022/07/12 09:02:50;;;;;;;5.40;3.85;;;;;;;24.17;55.31;102421.47;5030385;28;20096;-78
2022/07/12 09:05:21;;;;;;;10.40;5.60;;;;;;;24.38;56.35;102421.88;5030499;28;20388;-79
2022/07/12 09:07:47;;;;;;;5.80;4.32;;;;;;;24.61;57.51;102421.22;5030679;28;20027;-78
2022/07/12 09:10:14;;;;;;;5.28;4.78;;;;;;;24.86;54.39;102420.25;5030348;28;20027;-79
2022/07/12 09:12:40;;;;;;;6.82;3.95;;;;;;;25.13;53.49;102404.72;5030840;28;20555;-75
2022/07/12 09:15:12;;;;;;;4.13;3.75;;;;;;;25.24;53.37;102407.09;5030947;28;20773;-78
2022/07/12 09:17:37;;;;;;;7.10;3.55;;;;;;;25.31;53.59;102402.69;5019867;28;20053;-78
2022/07/12 09:20:04;;;;;;;5.68;4.00;;;;;;;25.44;53.30;102404.84;5030836;28;20040;-75
2022/07/12 09:22:29;;;;;;;5.75;5.25;;;;;;;25.30;52.32;102401.00;5030205;28;20493;-75
2022/07/12 09:24:54;;;;;;;7.38;4.40;;;;;;;25.41;52.22;102407.88;5031444;28;20033;-78
2022/07/12 09:27:26;;;;;;;6.50;3.65;;;;;;;25.58;53.19;102399.56;5025302;28;20033;-79
2022/07/12 09:29:52;;;;;;;6.25;4.43;;;;;;;25.75;50.58;102399.53;5031379;28;20036;-78
2022/07/12 09:37:47;;;;;;;3.95;3.65;;;;;;;26.08;51.61;102397.50;5015229;28;20544;-78
2022/07/12 09:40:13;;;;;;;4.78;4.07;;;;;;;26.16;49.78;102389.38;5013367;28;20029;-75
2022/07/12 09:42:42;;;;;;;4.75;4.25;;;;;;;25.98;50.04;102400.41;5024272;28;20029;-75
2022/07/12 09:45:09;;;;;;;8.00;4.30;;;;;;;26.01;50.27;102399.22;5014669;28;20030;-75
2022/07/12 09:47:35;;;;;;;7.88;4.50;;;;;;;25.87;49.49;102393.56;5011020;28;20029;-77
2022/07/12 09:50:01;;;;;;;5.57;4.25;;;;;;;26.28;50.63;102387.09;5016583;28;20080;-75
2022/07/12 09:52:32;;;;;;;6.53;3.88;;;;;;;26.41;49.10;102393.59;5021093;28;20037;-78
2022/07/12 09:55:01;;;;;;;4.57;4.18;;;;;;;26.39;49.02;102392.94;5021302;28;20025;-79
2022/07/12 09:57:27;;;;;;;4.82;4.10;;;;;;;26.48;48.34;102385.63;5018147;28;20079;-78
2022/07/12 09:59:53;;;;;;;6.82;5.32;;;;;;;26.52;48.89;102386.94;5020351;28;20030;-78
2022/07/12 10:02:21;;;;;;;6.18;4.18;;;;;;;26.52;49.45;102382.38;5020994;28;20421;-78
2022/07/12 10:04:47;;;;;;;3.15;2.60;;;;;;;26.68;46.84;102372.47;5020329;28;20030;-78
2022/07/12 10:07:18;;;;;;;4.57;2.92;;;;;;;26.82;47.94;102382.47;5012755;28;20065;-78
2022/07/12 10:09:46;;;;;;;4.35;4.00;;;;;;;26.71;46.44;102381.03;5025638;28;20374;-78
2022/07/12 10:12:15;;;;;;;5.28;3.63;;;;;;;26.87;47.13;102380.06;5018755;28;20101;-77
2022/07/12 10:14:42;;;;;;;5.32;3.55;;;;;;;26.97;47.13;102369.00;5020858;28;20049;-79
2022/07/12 10:17:10;;;;;;;4.40;2.50;;;;;;;26.99;44.72;102378.63;5016137;28;20079;-77
2022/07/12 10:19:36;;;;;;;3.08;2.58;;;;;;;27.15;45.61;102364.09;5012497;28;20364;-77
2022/07/12 10:22:04;;;;;;;5.45;3.00;;;;;;;27.38;45.56;102366.72;5009730;28;20018;-79
2022/07/12 10:24:32;;;;;;;4.75;3.20;;;;;;;27.46;45.99;102369.31;5011154;28;20033;-75
2022/07/12 10:27:13;;;;;;;4.40;4.00;;;;;;;27.45;46.87;102365.75;5029860;28;20033;-77
2022/07/12 10:29:39;;;;;;;4.30;3.90;;;;;;;27.37;45.50;102363.16;5023436;28;20363;-77
2022/07/12 10:32:34;;;;;;;5.10;3.80;;;;;;;27.76;47.06;102364.72;5015962;28;20218;-77
2022/07/12 10:35:05;;;;;;;3.47;3.17;;;;;;;27.76;44.62;102370.97;5017356;28;20127;-78
2022/07/12 10:37:30;;;;;;;4.32;2.85;;;;;;;27.71;45.01;102364.47;5039301;28;20488;-78
2022/07/12 10:40:25;;;;;;;3.63;3.00;;;;;;;27.94;45.54;102365.13;5014379;28;20033;-77
2022/07/12 10:43:06;;;;;;;4.78;2.60;;;;;;;28.06;45.38;102369.03;5011058;28;20034;-78
2022/07/12 10:45:32;;;;;;;3.13;2.78;;;;;;;27.90;43.58;102363.84;5012488;28;20045;-78
2022/07/12 10:47:59;;;;;;;4.05;3.00;;;;;;;27.84;42.27;102367.31;5011689;28;20028;-78
2022/07/12 10:50:48;;;;;;;6.63;2.55;;;;;;;28.05;44.39;102369.22;5015720;28;20088;-78
2022/07/12 10:53:19;;;;;;;2.50;2.13;;;;;;;27.76;41.97;102370.97;5013085;28;20057;-78
2022/07/12 10:56:04;;;;;;;3.72;2.63;;;;;;;27.80;44.11;102362.47;5016457;28;20038;-80
2022/07/12 10:58:54;;;;;;;3.97;2.40;;;;;;;28.08;44.04;102363.44;5016432;28;20013;-78
2022/07/12 11:01:21;;;;;;;4.53;3.03;;;;;;;28.10;44.24;102361.38;5011694;28;20359;-78
2022/07/12 11:03:49;;;;;;;2.92;2.30;;;;;;;28.36;45.48;102364.34;5018694;28;20065;-79
2022/07/12 11:06:20;;;;;;;24.98;4.57;;;;;;;28.31;42.16;102363.25;5011324;28;20030;-78
2022/07/12 11:08:59;;;;;;;11.77;2.83;;;;;;;28.19;42.79;102368.34;5022225;28;20076;-78
2022/07/12 11:11:28;;;;;;;5.55;2.58;;;;;;;28.43;41.74;102361.72;5014598;28;20037;-79
2022/07/12 11:13:56;;;;;;;6.05;2.53;;;;;;;28.29;42.01;102360.75;5014368;28;20133;-80
2022/07/12 11:16:23;;;;;;;4.38;3.03;;;;;;;28.29;41.57;102357.22;5009231;28;20026;-80
2022/07/12 11:18:49;;;;;;;3.28;2.95;;;;;;;28.28;42.17;102355.53;5014588;28;20102;-79
2022/07/12 11:21:14;;;;;;;3.47;2.22;;;;;;;28.53;42.35;102356.81;5026882;28;20104;-80
2022/07/12 11:23:43;;;;;;;3.15;2.80;;;;;;;28.59;41.84;102356.03;5019979;28;20022;-80
2022/07/12 11:26:10;;;;;;;5.68;3.72;;;;;;;28.71;41.62;102357.16;5013939;28;20539;-79
2022/07/12 11:28:37;;;;;;;3.55;3.28;;;;;;;28.76;41.76;102344.88;5012892;28;20060;-79
2022/07/12 11:31:03;;;;;;;6.20;3.85;;;;;;;28.98;42.20;102333.00;5014259;28;20001;-79
2022/07/12 11:33:37;;;;;;;4.15;2.83;;;;;;;29.22;42.92;102342.50;5013002;28;20044;-78
2022/07/12 11:36:05;;;;;;;4.82;2.35;;;;;;;29.40;40.02;102331.97;5010429;28;20026;-77